sensor_id;sensor_type;location;lat;lon;timestamp;temperature;humidity
83405;SHT30;73331;48.168;20.776;2024-02-23T00:00:55;9.73;71.36
83405;SHT30;73331;48.168;20.776;2024-02-23T00:02:25;9.88;70.56
83405;SHT30;73331;48.168;20.776;2024-02-23T00:03:56;10.06;69.92
83405;SHT30;73331;48.168;20.776;2024-02-23T00:05:26;10.01;70.29
83405;SHT30;73331;48.168;20.776;2024-02-23T00:06:57;9.99;70.13
83405;SHT30;73331;48.168;20.776;2024-02-23T00:08:27;10.09;69.81
83405;SHT30;73331;48.168;20.776;2024-02-23T00:09:58;10.11;69.71
83405;SHT30;73331;48.168;20.776;2024-02-23T00:11:28;9.95;70.14
83405;SHT30;73331;48.168;20.776;2024-02-23T00:12:59;10.05;69.90
83405;SHT30;73331;48.168;20.776;2024-02-23T00:14:31;9.87;70.46
83405;SHT30;73331;48.168;20.776;2024-02-23T00:16:01;9.92;70.61
83405;SHT30;73331;48.168;20.776;2024-02-23T00:17:32;10.02;70.22
83405;SHT30;73331;48.168;20.776;2024-02-23T00:19:02;10.05;70.10
83405;SHT30;73331;48.168;20.776;2024-02-23T00:20:33;9.95;69.89
83405;SHT30;73331;48.168;20.776;2024-02-23T00:22:03;9.95;70.23
83405;SHT30;73331;48.168;20.776;2024-02-23T00:23:34;9.97;70.07
83405;SHT30;73331;48.168;20.776;2024-02-23T00:25:05;9.99;69.87
83405;SHT30;73331;48.168;20.776;2024-02-23T00:26:35;9.92;70.04
83405;SHT30;73331;48.168;20.776;2024-02-23T00:28:06;10.16;69.51
83405;SHT30;73331;48.168;20.776;2024-02-23T00:29:36;9.97;69.80
83405;SHT30;73331;48.168;20.776;2024-02-23T00:31:07;9.92;70.09
83405;SHT30;73331;48.168;20.776;2024-02-23T00:32:38;9.87;70.28
83405;SHT30;73331;48.168;20.776;2024-02-23T00:34:08;9.88;69.93
83405;SHT30;73331;48.168;20.776;2024-02-23T00:35:43;9.85;70.15
83405;SHT30;73331;48.168;20.776;2024-02-23T00:37:14;9.95;69.94
83405;SHT30;73331;48.168;20.776;2024-02-23T00:38:45;9.90;70.16
83405;SHT30;73331;48.168;20.776;2024-02-23T00:40:15;9.97;69.99
83405;SHT30;73331;48.168;20.776;2024-02-23T00:41:46;10.14;69.16
83405;SHT30;73331;48.168;20.776;2024-02-23T00:43:19;9.87;70.00
83405;SHT30;73331;48.168;20.776;2024-02-23T00:44:49;9.80;70.64
83405;SHT30;73331;48.168;20.776;2024-02-23T00:46:20;9.81;70.31
83405;SHT30;73331;48.168;20.776;2024-02-23T00:47:51;10.04;69.78
83405;SHT30;73331;48.168;20.776;2024-02-23T00:49:21;9.95;69.88
83405;SHT30;73331;48.168;20.776;2024-02-23T00:50:52;10.05;69.82
83405;SHT30;73331;48.168;20.776;2024-02-23T00:52:22;9.88;70.65
83405;SHT30;73331;48.168;20.776;2024-02-23T00:53:52;9.92;70.30
83405;SHT30;73331;48.168;20.776;2024-02-23T00:55:23;9.94;70.26
83405;SHT30;73331;48.168;20.776;2024-02-23T00:56:55;9.81;70.11
83405;SHT30;73331;48.168;20.776;2024-02-23T00:58:26;9.91;70.53
83405;SHT30;73331;48.168;20.776;2024-02-23T00:59:57;9.77;70.57
83405;SHT30;73331;48.168;20.776;2024-02-23T01:01:27;9.94;70.11
83405;SHT30;73331;48.168;20.776;2024-02-23T01:02:59;9.87;70.69
83405;SHT30;73331;48.168;20.776;2024-02-23T01:04:30;9.74;70.91
83405;SHT30;73331;48.168;20.776;2024-02-23T01:06:01;9.77;71.78
83405;SHT30;73331;48.168;20.776;2024-02-23T01:07:31;9.75;71.56
83405;SHT30;73331;48.168;20.776;2024-02-23T01:09:02;9.82;70.52
83405;SHT30;73331;48.168;20.776;2024-02-23T01:10:34;9.92;71.05
83405;SHT30;73331;48.168;20.776;2024-02-23T01:12:05;10.02;70.39
83405;SHT30;73331;48.168;20.776;2024-02-23T01:13:35;9.84;70.85
83405;SHT30;73331;48.168;20.776;2024-02-23T01:15:06;9.92;71.08
83405;SHT30;73331;48.168;20.776;2024-02-23T01:16:37;9.84;70.84
83405;SHT30;73331;48.168;20.776;2024-02-23T01:18:07;9.74;71.21
83405;SHT30;73331;48.168;20.776;2024-02-23T01:19:38;9.80;71.10
83405;SHT30;73331;48.168;20.776;2024-02-23T01:21:09;9.62;71.12
83405;SHT30;73331;48.168;20.776;2024-02-23T01:22:39;9.77;71.27
83405;SHT30;73331;48.168;20.776;2024-02-23T01:24:10;9.69;71.38
83405;SHT30;73331;48.168;20.776;2024-02-23T01:25:40;9.61;72.03
83405;SHT30;73331;48.168;20.776;2024-02-23T01:27:11;9.94;71.47
83405;SHT30;73331;48.168;20.776;2024-02-23T01:28:42;9.87;71.65
83405;SHT30;73331;48.168;20.776;2024-02-23T01:30:12;9.70;71.90
83405;SHT30;73331;48.168;20.776;2024-02-23T01:31:43;9.54;72.76
83405;SHT30;73331;48.168;20.776;2024-02-23T01:33:13;9.62;73.49
83405;SHT30;73331;48.168;20.776;2024-02-23T01:34:44;9.67;73.27
83405;SHT30;73331;48.168;20.776;2024-02-23T01:36:14;9.57;73.34
83405;SHT30;73331;48.168;20.776;2024-02-23T01:37:45;9.48;73.61
83405;SHT30;73331;48.168;20.776;2024-02-23T01:39:15;9.26;74.66
83405;SHT30;73331;48.168;20.776;2024-02-23T01:40:46;9.41;74.20
83405;SHT30;73331;48.168;20.776;2024-02-23T01:42:17;9.46;73.86
83405;SHT30;73331;48.168;20.776;2024-02-23T01:43:48;9.48;73.78
83405;SHT30;73331;48.168;20.776;2024-02-23T01:45:19;9.54;73.57
83405;SHT30;73331;48.168;20.776;2024-02-23T01:46:50;9.50;73.86
83405;SHT30;73331;48.168;20.776;2024-02-23T01:48:21;9.20;74.07
83405;SHT30;73331;48.168;20.776;2024-02-23T01:49:52;9.30;74.10
83405;SHT30;73331;48.168;20.776;2024-02-23T01:51:24;9.40;73.81
83405;SHT30;73331;48.168;20.776;2024-02-23T01:52:57;9.43;74.41
83405;SHT30;73331;48.168;20.776;2024-02-23T01:54:30;9.33;73.96
83405;SHT30;73331;48.168;20.776;2024-02-23T01:56:01;9.23;74.36
83405;SHT30;73331;48.168;20.776;2024-02-23T01:57:32;9.33;74.08
83405;SHT30;73331;48.168;20.776;2024-02-23T01:59:04;9.48;73.04
83405;SHT30;73331;48.168;20.776;2024-02-23T02:00:35;9.46;73.28
83405;SHT30;73331;48.168;20.776;2024-02-23T02:02:06;9.36;73.52
83405;SHT30;73331;48.168;20.776;2024-02-23T02:03:38;9.58;72.48
83405;SHT30;73331;48.168;20.776;2024-02-23T02:05:09;9.37;72.48
83405;SHT30;73331;48.168;20.776;2024-02-23T02:06:39;9.50;72.32
83405;SHT30;73331;48.168;20.776;2024-02-23T02:08:10;9.51;72.66
83405;SHT30;73331;48.168;20.776;2024-02-23T02:09:41;9.55;72.18
83405;SHT30;73331;48.168;20.776;2024-02-23T02:11:11;9.67;70.88
83405;SHT30;73331;48.168;20.776;2024-02-23T02:12:42;9.61;71.46
83405;SHT30;73331;48.168;20.776;2024-02-23T02:14:12;9.55;71.59
83405;SHT30;73331;48.168;20.776;2024-02-23T02:15:43;9.74;71.09
83405;SHT30;73331;48.168;20.776;2024-02-23T02:17:14;9.81;70.36
83405;SHT30;73331;48.168;20.776;2024-02-23T02:18:44;9.80;70.22
83405;SHT30;73331;48.168;20.776;2024-02-23T02:20:17;9.78;70.27
83405;SHT30;73331;48.168;20.776;2024-02-23T02:21:48;9.73;70.46
83405;SHT30;73331;48.168;20.776;2024-02-23T02:23:19;9.71;70.51
83405;SHT30;73331;48.168;20.776;2024-02-23T02:24:49;9.64;70.04
83405;SHT30;73331;48.168;20.776;2024-02-23T02:26:20;9.61;69.94
83405;SHT30;73331;48.168;20.776;2024-02-23T02:27:50;9.84;69.76
83405;SHT30;73331;48.168;20.776;2024-02-23T02:29:21;9.78;68.91
83405;SHT30;73331;48.168;20.776;2024-02-23T02:30:52;9.73;69.70
83405;SHT30;73331;48.168;20.776;2024-02-23T02:32:25;9.74;69.33
83405;SHT30;73331;48.168;20.776;2024-02-23T02:33:55;9.61;69.69
83405;SHT30;73331;48.168;20.776;2024-02-23T02:35:26;9.71;69.81
83405;SHT30;73331;48.168;20.776;2024-02-23T02:36:56;9.61;69.76
83405;SHT30;73331;48.168;20.776;2024-02-23T02:38:27;9.74;69.60
83405;SHT30;73331;48.168;20.776;2024-02-23T02:39:57;9.62;70.47
83405;SHT30;73331;48.168;20.776;2024-02-23T02:41:28;9.57;70.31
83405;SHT30;73331;48.168;20.776;2024-02-23T02:43:00;9.65;70.46
83405;SHT30;73331;48.168;20.776;2024-02-23T02:44:31;9.67;70.49
83405;SHT30;73331;48.168;20.776;2024-02-23T02:46:01;9.74;70.23
83405;SHT30;73331;48.168;20.776;2024-02-23T02:47:32;9.80;70.25
83405;SHT30;73331;48.168;20.776;2024-02-23T02:49:02;9.57;70.75
83405;SHT30;73331;48.168;20.776;2024-02-23T02:50:33;9.58;70.89
83405;SHT30;73331;48.168;20.776;2024-02-23T02:52:04;9.81;70.32
83405;SHT30;73331;48.168;20.776;2024-02-23T02:53:35;9.70;70.25
83405;SHT30;73331;48.168;20.776;2024-02-23T02:55:05;9.61;71.37
83405;SHT30;73331;48.168;20.776;2024-02-23T02:56:36;9.67;71.71
83405;SHT30;73331;48.168;20.776;2024-02-23T02:58:06;9.77;71.12
83405;SHT30;73331;48.168;20.776;2024-02-23T02:59:37;9.61;72.02
83405;SHT30;73331;48.168;20.776;2024-02-23T03:01:08;9.65;71.90
83405;SHT30;73331;48.168;20.776;2024-02-23T03:02:38;9.41;72.73
83405;SHT30;73331;48.168;20.776;2024-02-23T03:04:09;9.39;73.20
83405;SHT30;73331;48.168;20.776;2024-02-23T03:05:39;9.39;72.86
83405;SHT30;73331;48.168;20.776;2024-02-23T03:07:10;9.39;73.19
83405;SHT30;73331;48.168;20.776;2024-02-23T03:08:43;9.57;72.61
83405;SHT30;73331;48.168;20.776;2024-02-23T03:10:14;9.40;72.80
83405;SHT30;73331;48.168;20.776;2024-02-23T03:11:44;9.48;73.33
83405;SHT30;73331;48.168;20.776;2024-02-23T03:13:15;9.37;73.49
83405;SHT30;73331;48.168;20.776;2024-02-23T03:14:45;9.54;72.82
83405;SHT30;73331;48.168;20.776;2024-02-23T03:16:20;9.39;73.97
83405;SHT30;73331;48.168;20.776;2024-02-23T03:17:55;9.33;73.79
83405;SHT30;73331;48.168;20.776;2024-02-23T03:19:26;9.48;73.82
83405;SHT30;73331;48.168;20.776;2024-02-23T03:20:57;9.33;74.17
83405;SHT30;73331;48.168;20.776;2024-02-23T03:22:27;9.30;74.68
83405;SHT30;73331;48.168;20.776;2024-02-23T03:23:58;9.30;74.26
83405;SHT30;73331;48.168;20.776;2024-02-23T03:25:29;9.37;73.96
83405;SHT30;73331;48.168;20.776;2024-02-23T03:26:59;9.48;73.37
83405;SHT30;73331;48.168;20.776;2024-02-23T03:28:30;9.54;73.24
83405;SHT30;73331;48.168;20.776;2024-02-23T03:30:00;9.52;73.39
83405;SHT30;73331;48.168;20.776;2024-02-23T03:31:31;9.60;73.11
83405;SHT30;73331;48.168;20.776;2024-02-23T03:33:01;9.64;73.03
83405;SHT30;73331;48.168;20.776;2024-02-23T03:34:32;9.74;72.61
83405;SHT30;73331;48.168;20.776;2024-02-23T03:36:03;9.46;73.17
83405;SHT30;73331;48.168;20.776;2024-02-23T03:37:33;9.73;73.14
83405;SHT30;73331;48.168;20.776;2024-02-23T03:39:04;9.44;73.65
83405;SHT30;73331;48.168;20.776;2024-02-23T03:40:34;9.39;74.16
83405;SHT30;73331;48.168;20.776;2024-02-23T03:42:06;9.51;73.72
83405;SHT30;73331;48.168;20.776;2024-02-23T03:43:36;9.43;74.35
83405;SHT30;73331;48.168;20.776;2024-02-23T03:45:08;9.40;74.27
83405;SHT30;73331;48.168;20.776;2024-02-23T03:46:39;9.48;73.90
83405;SHT30;73331;48.168;20.776;2024-02-23T03:48:09;9.46;74.20
83405;SHT30;73331;48.168;20.776;2024-02-23T03:49:40;9.50;73.58
83405;SHT30;73331;48.168;20.776;2024-02-23T03:51:10;9.62;73.71
83405;SHT30;73331;48.168;20.776;2024-02-23T03:52:41;9.67;73.06
83405;SHT30;73331;48.168;20.776;2024-02-23T03:54:11;9.61;73.89
83405;SHT30;73331;48.168;20.776;2024-02-23T03:55:42;9.60;73.76
83405;SHT30;73331;48.168;20.776;2024-02-23T03:57:13;9.61;73.42
83405;SHT30;73331;48.168;20.776;2024-02-23T03:58:43;9.48;74.07
83405;SHT30;73331;48.168;20.776;2024-02-23T04:00:14;9.48;74.09
83405;SHT30;73331;48.168;20.776;2024-02-23T04:01:45;9.65;73.58
83405;SHT30;73331;48.168;20.776;2024-02-23T04:03:15;9.67;74.08
83405;SHT30;73331;48.168;20.776;2024-02-23T04:04:47;9.43;74.27
83405;SHT30;73331;48.168;20.776;2024-02-23T04:06:18;9.67;74.21
83405;SHT30;73331;48.168;20.776;2024-02-23T04:07:49;9.64;73.92
83405;SHT30;73331;48.168;20.776;2024-02-23T04:09:19;9.84;73.65
83405;SHT30;73331;48.168;20.776;2024-02-23T04:10:51;9.46;74.37
83405;SHT30;73331;48.168;20.776;2024-02-23T04:12:21;9.60;74.29
83405;SHT30;73331;48.168;20.776;2024-02-23T04:13:52;9.43;74.56
83405;SHT30;73331;48.168;20.776;2024-02-23T04:15:22;9.55;74.88
83405;SHT30;73331;48.168;20.776;2024-02-23T04:16:53;9.46;74.84
83405;SHT30;73331;48.168;20.776;2024-02-23T04:18:24;9.48;75.14
83405;SHT30;73331;48.168;20.776;2024-02-23T04:19:55;9.47;75.20
83405;SHT30;73331;48.168;20.776;2024-02-23T04:21:25;9.57;74.84
83405;SHT30;73331;48.168;20.776;2024-02-23T04:22:56;9.57;74.92
83405;SHT30;73331;48.168;20.776;2024-02-23T04:24:26;9.52;75.19
83405;SHT30;73331;48.168;20.776;2024-02-23T04:25:58;9.30;75.97
83405;SHT30;73331;48.168;20.776;2024-02-23T04:27:29;9.36;76.44
83405;SHT30;73331;48.168;20.776;2024-02-23T04:28:59;9.17;76.82
83405;SHT30;73331;48.168;20.776;2024-02-23T04:30:30;9.26;76.85
83405;SHT30;73331;48.168;20.776;2024-02-23T04:32:01;9.19;77.39
83405;SHT30;73331;48.168;20.776;2024-02-23T04:33:31;9.26;77.33
83405;SHT30;73331;48.168;20.776;2024-02-23T04:35:03;9.22;77.78
83405;SHT30;73331;48.168;20.776;2024-02-23T04:36:34;9.09;77.55
83405;SHT30;73331;48.168;20.776;2024-02-23T04:38:04;9.10;77.82
83405;SHT30;73331;48.168;20.776;2024-02-23T04:39:34;9.09;77.90
83405;SHT30;73331;48.168;20.776;2024-02-23T04:41:05;9.19;77.81
83405;SHT30;73331;48.168;20.776;2024-02-23T04:42:35;9.26;77.71
83405;SHT30;73331;48.168;20.776;2024-02-23T04:44:06;9.06;78.53
83405;SHT30;73331;48.168;20.776;2024-02-23T04:45:36;9.00;78.47
83405;SHT30;73331;48.168;20.776;2024-02-23T04:47:07;9.06;78.65
83405;SHT30;73331;48.168;20.776;2024-02-23T04:48:37;9.17;78.64
83405;SHT30;73331;48.168;20.776;2024-02-23T04:50:08;8.97;78.84
83405;SHT30;73331;48.168;20.776;2024-02-23T04:51:39;9.12;78.63
83405;SHT30;73331;48.168;20.776;2024-02-23T04:53:09;9.09;79.02
83405;SHT30;73331;48.168;20.776;2024-02-23T04:54:40;9.27;78.34
83405;SHT30;73331;48.168;20.776;2024-02-23T04:56:10;9.07;79.57
83405;SHT30;73331;48.168;20.776;2024-02-23T04:57:41;8.90;80.03
83405;SHT30;73331;48.168;20.776;2024-02-23T04:59:11;8.83;80.47
83405;SHT30;73331;48.168;20.776;2024-02-23T05:00:42;8.83;80.70
83405;SHT30;73331;48.168;20.776;2024-02-23T05:02:12;8.93;80.77
83405;SHT30;73331;48.168;20.776;2024-02-23T05:03:43;9.05;80.25
83405;SHT30;73331;48.168;20.776;2024-02-23T05:05:14;8.90;80.76
83405;SHT30;73331;48.168;20.776;2024-02-23T05:06:44;8.86;81.50
83405;SHT30;73331;48.168;20.776;2024-02-23T05:08:15;8.78;81.51
83405;SHT30;73331;48.168;20.776;2024-02-23T05:09:45;8.69;81.42
83405;SHT30;73331;48.168;20.776;2024-02-23T05:11:15;8.76;81.80
83405;SHT30;73331;48.168;20.776;2024-02-23T05:12:46;8.95;81.55
83405;SHT30;73331;48.168;20.776;2024-02-23T05:14:17;8.69;82.61
83405;SHT30;73331;48.168;20.776;2024-02-23T05:15:47;8.66;82.56
83405;SHT30;73331;48.168;20.776;2024-02-23T05:17:18;8.64;82.88
83405;SHT30;73331;48.168;20.776;2024-02-23T05:18:48;8.55;83.47
83405;SHT30;73331;48.168;20.776;2024-02-23T05:20:19;8.66;82.91
83405;SHT30;73331;48.168;20.776;2024-02-23T05:21:49;9.00;81.62
83405;SHT30;73331;48.168;20.776;2024-02-23T05:23:20;9.22;80.75
83405;SHT30;73331;48.168;20.776;2024-02-23T05:24:50;8.95;81.72
83405;SHT30;73331;48.168;20.776;2024-02-23T05:26:21;9.19;81.21
83405;SHT30;73331;48.168;20.776;2024-02-23T05:27:51;8.96;81.87
83405;SHT30;73331;48.168;20.776;2024-02-23T05:29:22;8.93;82.24
83405;SHT30;73331;48.168;20.776;2024-02-23T05:30:54;8.79;82.56
83405;SHT30;73331;48.168;20.776;2024-02-23T05:32:24;9.15;81.69
83405;SHT30;73331;48.168;20.776;2024-02-23T05:33:55;9.16;81.15
83405;SHT30;73331;48.168;20.776;2024-02-23T05:35:25;8.93;81.91
83405;SHT30;73331;48.168;20.776;2024-02-23T05:36:56;8.95;82.35
83405;SHT30;73331;48.168;20.776;2024-02-23T05:38:27;8.73;83.30
83405;SHT30;73331;48.168;20.776;2024-02-23T05:39:57;8.55;84.44
83405;SHT30;73331;48.168;20.776;2024-02-23T05:41:30;8.58;84.17
83405;SHT30;73331;48.168;20.776;2024-02-23T05:43:00;8.56;84.11
83405;SHT30;73331;48.168;20.776;2024-02-23T05:44:31;8.31;85.00
83405;SHT30;73331;48.168;20.776;2024-02-23T05:46:01;8.28;85.21
83405;SHT30;73331;48.168;20.776;2024-02-23T05:47:31;8.56;83.93
83405;SHT30;73331;48.168;20.776;2024-02-23T05:49:03;8.31;85.53
83405;SHT30;73331;48.168;20.776;2024-02-23T05:50:34;8.44;85.09
83405;SHT30;73331;48.168;20.776;2024-02-23T05:52:05;8.38;84.75
83405;SHT30;73331;48.168;20.776;2024-02-23T05:53:36;8.37;85.20
83405;SHT30;73331;48.168;20.776;2024-02-23T05:55:07;8.30;85.42
83405;SHT30;73331;48.168;20.776;2024-02-23T05:56:38;8.44;85.56
83405;SHT30;73331;48.168;20.776;2024-02-23T05:58:08;8.35;85.54
83405;SHT30;73331;48.168;20.776;2024-02-23T05:59:39;8.31;85.50
83405;SHT30;73331;48.168;20.776;2024-02-23T06:01:10;8.31;85.67
83405;SHT30;73331;48.168;20.776;2024-02-23T06:02:40;8.51;84.96
83405;SHT30;73331;48.168;20.776;2024-02-23T06:04:11;8.31;85.81
83405;SHT30;73331;48.168;20.776;2024-02-23T06:05:41;8.23;86.41
83405;SHT30;73331;48.168;20.776;2024-02-23T06:07:13;8.46;85.77
83405;SHT30;73331;48.168;20.776;2024-02-23T06:08:43;8.25;86.18
83405;SHT30;73331;48.168;20.776;2024-02-23T06:10:14;8.35;85.92
83405;SHT30;73331;48.168;20.776;2024-02-23T06:11:44;8.35;85.74
83405;SHT30;73331;48.168;20.776;2024-02-23T06:13:15;8.58;85.34
83405;SHT30;73331;48.168;20.776;2024-02-23T06:14:45;8.35;85.79
83405;SHT30;73331;48.168;20.776;2024-02-23T06:16:16;8.44;85.96
83405;SHT30;73331;48.168;20.776;2024-02-23T06:17:46;8.41;85.89
83405;SHT30;73331;48.168;20.776;2024-02-23T06:19:17;8.34;86.07
83405;SHT30;73331;48.168;20.776;2024-02-23T06:20:49;8.38;86.14
83405;SHT30;73331;48.168;20.776;2024-02-23T06:22:20;8.25;86.88
83405;SHT30;73331;48.168;20.776;2024-02-23T06:23:52;8.34;86.38
83405;SHT30;73331;48.168;20.776;2024-02-23T06:25:23;8.61;85.63
83405;SHT30;73331;48.168;20.776;2024-02-23T06:26:53;8.71;84.50
83405;SHT30;73331;48.168;20.776;2024-02-23T06:28:24;8.69;84.81
83405;SHT30;73331;48.168;20.776;2024-02-23T06:29:54;8.48;85.24
83405;SHT30;73331;48.168;20.776;2024-02-23T06:31:26;8.40;85.27
83405;SHT30;73331;48.168;20.776;2024-02-23T06:32:56;8.52;85.38
83405;SHT30;73331;48.168;20.776;2024-02-23T06:34:27;8.65;85.21
83405;SHT30;73331;48.168;20.776;2024-02-23T06:35:57;8.56;85.46
83405;SHT30;73331;48.168;20.776;2024-02-23T06:37:28;8.71;85.35
83405;SHT30;73331;48.168;20.776;2024-02-23T06:38:59;8.46;85.22
83405;SHT30;73331;48.168;20.776;2024-02-23T06:40:29;8.49;85.74
83405;SHT30;73331;48.168;20.776;2024-02-23T06:42:00;8.59;85.76
83405;SHT30;73331;48.168;20.776;2024-02-23T06:43:31;8.34;85.85
83405;SHT30;73331;48.168;20.776;2024-02-23T06:45:02;8.64;85.59
83405;SHT30;73331;48.168;20.776;2024-02-23T06:46:32;8.65;84.98
83405;SHT30;73331;48.168;20.776;2024-02-23T06:48:03;8.68;84.56
83405;SHT30;73331;48.168;20.776;2024-02-23T06:49:34;8.62;84.89
83405;SHT30;73331;48.168;20.776;2024-02-23T06:51:05;8.69;85.62
83405;SHT30;73331;48.168;20.776;2024-02-23T06:52:39;8.69;85.20
83405;SHT30;73331;48.168;20.776;2024-02-23T06:54:10;8.59;85.74
83405;SHT30;73331;48.168;20.776;2024-02-23T06:55:41;8.54;85.33
83405;SHT30;73331;48.168;20.776;2024-02-23T06:57:12;8.62;85.45
83405;SHT30;73331;48.168;20.776;2024-02-23T06:58:42;8.61;85.64
83405;SHT30;73331;48.168;20.776;2024-02-23T07:00:13;8.75;85.05
83405;SHT30;73331;48.168;20.776;2024-02-23T07:01:50;8.90;84.47
83405;SHT30;73331;48.168;20.776;2024-02-23T07:03:21;8.89;84.69
83405;SHT30;73331;48.168;20.776;2024-02-23T07:04:52;8.82;84.81
83405;SHT30;73331;48.168;20.776;2024-02-23T07:06:25;8.83;85.13
83405;SHT30;73331;48.168;20.776;2024-02-23T07:07:55;8.95;84.46
83405;SHT30;73331;48.168;20.776;2024-02-23T07:09:26;8.97;84.42
83405;SHT30;73331;48.168;20.776;2024-02-23T07:10:56;8.89;84.55
83405;SHT30;73331;48.168;20.776;2024-02-23T07:12:27;8.75;85.11
83405;SHT30;73331;48.168;20.776;2024-02-23T07:13:59;8.95;85.25
83405;SHT30;73331;48.168;20.776;2024-02-23T07:15:29;8.99;84.76
83405;SHT30;73331;48.168;20.776;2024-02-23T07:17:00;9.12;84.26
83405;SHT30;73331;48.168;20.776;2024-02-23T07:18:30;9.20;83.60
83405;SHT30;73331;48.168;20.776;2024-02-23T07:20:01;9.13;84.06
83405;SHT30;73331;48.168;20.776;2024-02-23T07:21:35;9.09;84.26
83405;SHT30;73331;48.168;20.776;2024-02-23T07:23:06;9.19;83.83
83405;SHT30;73331;48.168;20.776;2024-02-23T07:24:41;9.26;83.83
83405;SHT30;73331;48.168;20.776;2024-02-23T07:26:12;9.20;83.88
83405;SHT30;73331;48.168;20.776;2024-02-23T07:27:43;9.34;83.50
83405;SHT30;73331;48.168;20.776;2024-02-23T07:29:14;9.26;83.72
83405;SHT30;73331;48.168;20.776;2024-02-23T07:30:45;9.37;83.44
83405;SHT30;73331;48.168;20.776;2024-02-23T07:32:16;9.39;82.87
83405;SHT30;73331;48.168;20.776;2024-02-23T07:33:47;9.43;82.90
83405;SHT30;73331;48.168;20.776;2024-02-23T07:35:18;9.26;83.50
83405;SHT30;73331;48.168;20.776;2024-02-23T07:36:51;9.26;83.76
83405;SHT30;73331;48.168;20.776;2024-02-23T07:38:22;9.23;83.85
83405;SHT30;73331;48.168;20.776;2024-02-23T07:39:53;9.34;84.18
83405;SHT30;73331;48.168;20.776;2024-02-23T07:41:23;9.60;83.25
83405;SHT30;73331;48.168;20.776;2024-02-23T07:42:54;9.58;83.25
83405;SHT30;73331;48.168;20.776;2024-02-23T07:44:24;9.71;83.12
83405;SHT30;73331;48.168;20.776;2024-02-23T07:45:55;9.64;83.00
83405;SHT30;73331;48.168;20.776;2024-02-23T07:47:26;9.67;83.31
83405;SHT30;73331;48.168;20.776;2024-02-23T07:48:57;9.73;83.40
83405;SHT30;73331;48.168;20.776;2024-02-23T07:50:28;9.78;83.34
83405;SHT30;73331;48.168;20.776;2024-02-23T07:51:59;9.65;83.85
83405;SHT30;73331;48.168;20.776;2024-02-23T07:53:29;9.71;83.69
83405;SHT30;73331;48.168;20.776;2024-02-23T07:55:00;9.57;84.10
83405;SHT30;73331;48.168;20.776;2024-02-23T07:56:33;9.62;84.03
83405;SHT30;73331;48.168;20.776;2024-02-23T07:58:03;9.67;83.95
83405;SHT30;73331;48.168;20.776;2024-02-23T07:59:34;9.75;83.93
83405;SHT30;73331;48.168;20.776;2024-02-23T08:01:05;9.52;84.36
83405;SHT30;73331;48.168;20.776;2024-02-23T08:02:36;9.55;84.31
83405;SHT30;73331;48.168;20.776;2024-02-23T08:04:06;9.58;84.52
83405;SHT30;73331;48.168;20.776;2024-02-23T08:05:37;9.62;84.74
83405;SHT30;73331;48.168;20.776;2024-02-23T08:07:08;9.58;84.68
83405;SHT30;73331;48.168;20.776;2024-02-23T08:08:39;9.62;84.39
83405;SHT30;73331;48.168;20.776;2024-02-23T08:10:09;9.73;83.82
83405;SHT30;73331;48.168;20.776;2024-02-23T08:11:42;9.78;83.05
83405;SHT30;73331;48.168;20.776;2024-02-23T08:13:12;9.67;83.68
83405;SHT30;73331;48.168;20.776;2024-02-23T08:14:43;9.73;83.74
83405;SHT30;73331;48.168;20.776;2024-02-23T08:16:15;9.64;83.60
83405;SHT30;73331;48.168;20.776;2024-02-23T08:17:46;9.55;84.08
83405;SHT30;73331;48.168;20.776;2024-02-23T08:19:17;9.74;83.84
83405;SHT30;73331;48.168;20.776;2024-02-23T08:20:47;9.82;82.88
83405;SHT30;73331;48.168;20.776;2024-02-23T08:22:18;9.58;84.04
83405;SHT30;73331;48.168;20.776;2024-02-23T08:23:48;9.61;84.12
83405;SHT30;73331;48.168;20.776;2024-02-23T08:25:19;9.51;85.06
83405;SHT30;73331;48.168;20.776;2024-02-23T08:26:49;9.70;84.76
83405;SHT30;73331;48.168;20.776;2024-02-23T08:28:20;9.75;83.96
83405;SHT30;73331;48.168;20.776;2024-02-23T08:29:50;9.87;83.38
83405;SHT30;73331;48.168;20.776;2024-02-23T08:31:21;9.80;84.02
83405;SHT30;73331;48.168;20.776;2024-02-23T08:32:51;10.05;83.27
83405;SHT30;73331;48.168;20.776;2024-02-23T08:34:22;9.80;84.13
83405;SHT30;73331;48.168;20.776;2024-02-23T08:35:52;9.70;84.72
83405;SHT30;73331;48.168;20.776;2024-02-23T08:37:23;9.92;84.40
83405;SHT30;73331;48.168;20.776;2024-02-23T08:38:53;9.84;84.11
83405;SHT30;73331;48.168;20.776;2024-02-23T08:40:24;9.84;83.97
83405;SHT30;73331;48.168;20.776;2024-02-23T08:41:54;9.71;84.68
83405;SHT30;73331;48.168;20.776;2024-02-23T08:43:25;9.48;85.77
83405;SHT30;73331;48.168;20.776;2024-02-23T08:44:55;9.67;85.14
83405;SHT30;73331;48.168;20.776;2024-02-23T08:46:26;9.74;84.42
83405;SHT30;73331;48.168;20.776;2024-02-23T08:47:56;9.58;84.67
83405;SHT30;73331;48.168;20.776;2024-02-23T08:49:27;9.67;84.54
83405;SHT30;73331;48.168;20.776;2024-02-23T08:50:58;9.78;83.60
83405;SHT30;73331;48.168;20.776;2024-02-23T08:52:28;9.54;84.89
83405;SHT30;73331;48.168;20.776;2024-02-23T08:53:59;9.54;85.20
83405;SHT30;73331;48.168;20.776;2024-02-23T08:55:34;9.84;84.14
83405;SHT30;73331;48.168;20.776;2024-02-23T08:57:05;9.73;84.15
83405;SHT30;73331;48.168;20.776;2024-02-23T08:58:35;9.67;84.05
83405;SHT30;73331;48.168;20.776;2024-02-23T09:00:07;9.58;84.46
83405;SHT30;73331;48.168;20.776;2024-02-23T09:01:37;9.91;83.58
83405;SHT30;73331;48.168;20.776;2024-02-23T09:03:08;9.87;83.38
83405;SHT30;73331;48.168;20.776;2024-02-23T09:04:38;9.82;83.61
83405;SHT30;73331;48.168;20.776;2024-02-23T09:06:09;9.55;84.67
83405;SHT30;73331;48.168;20.776;2024-02-23T09:07:39;9.75;83.46
83405;SHT30;73331;48.168;20.776;2024-02-23T09:09:10;9.69;83.77
83405;SHT30;73331;48.168;20.776;2024-02-23T09:10:41;9.82;84.02
83405;SHT30;73331;48.168;20.776;2024-02-23T09:12:11;9.65;83.53
83405;SHT30;73331;48.168;20.776;2024-02-23T09:13:42;9.51;84.06
83405;SHT30;73331;48.168;20.776;2024-02-23T09:15:13;9.43;84.32
83405;SHT30;73331;48.168;20.776;2024-02-23T09:16:43;9.60;84.62
83405;SHT30;73331;48.168;20.776;2024-02-23T09:18:16;9.64;84.20
83405;SHT30;73331;48.168;20.776;2024-02-23T09:19:47;9.54;84.30
83405;SHT30;73331;48.168;20.776;2024-02-23T09:21:17;9.54;83.89
83405;SHT30;73331;48.168;20.776;2024-02-23T09:22:49;9.73;83.34
83405;SHT30;73331;48.168;20.776;2024-02-23T09:24:19;9.71;83.29
83405;SHT30;73331;48.168;20.776;2024-02-23T09:25:50;9.74;83.47
83405;SHT30;73331;48.168;20.776;2024-02-23T09:27:21;9.74;83.78
83405;SHT30;73331;48.168;20.776;2024-02-23T09:28:51;9.64;83.37
83405;SHT30;73331;48.168;20.776;2024-02-23T09:30:22;9.87;83.40
83405;SHT30;73331;48.168;20.776;2024-02-23T09:31:52;9.95;82.98
83405;SHT30;73331;48.168;20.776;2024-02-23T09:33:23;9.98;82.24